createdAt,value
2022-08-14T00:02:01.480Z,30.12
2022-08-14T00:04:34.794Z,30.07
2022-08-14T00:07:10.435Z,30.05
2022-08-14T00:09:55.989Z,30.02
2022-08-14T00:12:33.602Z,29.99
2022-08-14T00:15:10.376Z,29.96
2022-08-14T00:17:48.072Z,29.95
2022-08-14T00:20:30.621Z,29.92
2022-08-14T00:23:12.086Z,29.93
2022-08-14T00:25:53.787Z,29.91
2022-08-14T00:28:35.321Z,29.87
2022-08-14T00:31:04.998Z,29.88
2022-08-14T00:33:50.737Z,29.86
2022-08-14T00:36:37.264Z,29.86
2022-08-14T00:39:18.246Z,29.86
2022-08-14T00:41:47.363Z,29.85
2022-08-14T00:44:21.497Z,29.86
2022-08-14T00:46:59.825Z,29.85
2022-08-14T00:49:30.218Z,29.85
2022-08-14T00:52:00.454Z,29.84
2022-08-14T00:54:28.051Z,29.83
2022-08-14T00:56:56.481Z,29.81
2022-08-14T00:59:25.997Z,29.82
2022-08-14T01:01:58.169Z,29.79
2022-08-14T01:04:37.780Z,29.79
2022-08-14T01:07:20.987Z,29.76
2022-08-14T01:09:51.608Z,29.75
2022-08-14T01:12:27.217Z,29.75
2022-08-14T01:14:58.941Z,29.73
2022-08-14T01:17:51.827Z,29.73
2022-08-14T01:20:41.106Z,29.70
2022-08-14T01:23:16.672Z,29.67
2022-08-14T01:25:51.433Z,29.65
2022-08-14T01:28:46.999Z,29.64
2022-08-14T01:31:12.617Z,29.60
2022-08-14T01:35:15.663Z,29.56
2022-08-14T01:36:38.037Z,29.52
2022-08-14T01:39:13.598Z,29.50
2022-08-14T01:41:44.214Z,29.49
2022-08-14T01:44:32.458Z,29.47
2022-08-14T01:47:12.379Z,29.42
2022-08-14T01:49:59.804Z,29.38
2022-08-14T01:52:34.136Z,29.33
2022-08-14T01:55:25.387Z,29.30
2022-08-14T01:58:02.088Z,29.28
2022-08-14T02:00:43.388Z,29.22
2022-08-14T02:03:16.248Z,29.19
2022-08-14T02:05:44.095Z,29.13
2022-08-14T02:08:11.689Z,29.09
2022-08-14T02:10:46.253Z,29.06
2022-08-14T02:13:16.076Z,29.01
2022-08-14T02:15:44.400Z,28.95
2022-08-14T02:18:15.274Z,28.92
2022-08-14T02:20:42.849Z,28.86
2022-08-14T02:23:11.467Z,28.82
2022-08-14T02:25:39.524Z,28.78
2022-08-14T02:28:22.296Z,28.75
2022-08-14T02:30:56.023Z,28.71
2022-08-14T02:33:24.001Z,28.70
2022-08-14T02:36:01.544Z,28.69
2022-08-14T02:38:41.069Z,28.66
2022-08-14T02:41:13.870Z,28.64
2022-08-14T02:43:46.552Z,28.64
2022-08-14T02:46:20.769Z,28.64
2022-08-14T02:49:03.282Z,28.63
2022-08-14T02:51:34.882Z,28.64
2022-08-14T02:54:07.349Z,28.61
2022-08-14T02:57:15.981Z,28.61
2022-08-14T02:59:33.791Z,28.57
2022-08-14T03:02:03.040Z,28.56
2022-08-14T03:04:30.878Z,28.55
2022-08-14T03:07:07.421Z,28.53
2022-08-14T03:10:26.628Z,28.52
2022-08-14T03:12:31.078Z,28.49
2022-08-14T03:15:16.133Z,28.50
2022-08-14T03:17:57.416Z,28.49
2022-08-14T03:20:27.986Z,28.49
2022-08-14T03:22:57.146Z,28.49
2022-08-14T03:25:24.533Z,28.51
2022-08-14T03:27:58.455Z,28.51
2022-08-14T03:30:39.444Z,28.49
2022-08-14T03:33:11.882Z,28.48
2022-08-14T03:35:59.840Z,28.46
2022-08-14T03:39:14.261Z,28.42
2022-08-14T03:41:23.282Z,28.41
2022-08-14T03:44:01.169Z,28.40
2022-08-14T03:46:51.809Z,28.38
2022-08-14T03:49:24.340Z,28.37
2022-08-14T03:51:57.766Z,28.36
2022-08-14T03:54:26.041Z,28.34
2022-08-14T03:56:54.689Z,28.33
2022-08-14T03:59:22.254Z,28.31
2022-08-14T04:01:53.858Z,28.29
2022-08-14T04:04:29.453Z,28.26
2022-08-14T04:07:01.679Z,28.24
2022-08-14T04:09:29.451Z,28.20
2022-08-14T04:11:58.078Z,28.19
2022-08-14T04:14:28.978Z,28.16
2022-08-14T04:16:58.220Z,28.14
2022-08-14T04:19:28.312Z,28.12
2022-08-14T04:22:03.700Z,28.11
2022-08-14T04:24:38.048Z,28.10
2022-08-14T04:27:09.534Z,28.10
2022-08-14T04:29:38.862Z,28.10
2022-08-14T04:32:57.600Z,28.09
2022-08-14T04:34:57.084Z,28.10
2022-08-14T04:37:45.184Z,28.12
2022-08-14T04:40:32.737Z,28.09
2022-08-14T04:43:21.331Z,28.08
2022-08-14T04:45:51.034Z,28.07
2022-08-14T04:48:39.063Z,28.07
2022-08-14T04:51:12.619Z,28.07
2022-08-14T04:53:43.692Z,28.08
2022-08-14T04:56:31.029Z,28.09
2022-08-14T04:59:10.500Z,28.10
2022-08-14T05:01:41.703Z,28.11
2022-08-14T05:04:19.997Z,28.13
2022-08-14T05:06:50.030Z,28.16
2022-08-14T05:09:22.814Z,28.21
2022-08-14T05:11:51.420Z,28.25
2022-08-14T05:14:43.226Z,28.30
2022-08-14T05:17:10.572Z,28.32
2022-08-14T05:19:44.787Z,28.36
2022-08-14T05:22:27.591Z,28.36
2022-08-14T05:24:54.970Z,28.38
2022-08-14T05:27:23.967Z,28.40
2022-08-14T05:29:57.074Z,28.42
2022-08-14T05:32:26.899Z,28.44
2022-08-14T05:34:58.318Z,28.47
2022-08-14T05:37:28.172Z,28.51
2022-08-14T05:39:56.321Z,28.53
2022-08-14T05:42:29.328Z,28.56
2022-08-14T05:45:11.268Z,28.59
2022-08-14T05:47:41.974Z,28.58
2022-08-14T05:50:18.861Z,28.57
2022-08-14T05:52:48.795Z,28.61
2022-08-14T05:55:21.996Z,28.64
2022-08-14T05:57:54.295Z,28.67
2022-08-14T06:00:28.586Z,28.70
2022-08-14T06:02:58.173Z,28.73
2022-08-14T06:05:29.990Z,28.76
2022-08-14T06:07:58.867Z,28.81
2022-08-14T06:10:28.278Z,28.85
2022-08-14T06:12:58.031Z,28.88
2022-08-14T06:15:30.034Z,28.91
2022-08-14T06:18:00.359Z,28.93
2022-08-14T06:20:31.327Z,28.99
2022-08-14T06:23:02.021Z,29.05
2022-08-14T06:25:31.699Z,29.07
2022-08-14T06:28:02.035Z,29.12
2022-08-14T06:30:46.064Z,29.20
2022-08-14T06:33:15.778Z,29.27
2022-08-14T06:35:46.807Z,29.37
2022-08-14T06:38:17.422Z,29.44
2022-08-14T06:40:46.382Z,29.45
2022-08-14T06:43:15.798Z,29.44
2022-08-14T06:45:50.391Z,29.47
2022-08-14T06:48:24.541Z,29.55
2022-08-14T06:50:54.726Z,29.64
2022-08-14T06:53:28.202Z,29.73
2022-08-14T06:56:00.684Z,29.81
2022-08-14T06:58:32.138Z,29.85
2022-08-14T07:01:26.730Z,29.84
2022-08-14T07:04:22.956Z,29.78
2022-08-14T07:06:55.644Z,29.71
2022-08-14T07:09:40.478Z,29.73
2022-08-14T07:12:54.122Z,29.73
2022-08-14T07:15:04.974Z,29.72
2022-08-14T07:17:34.483Z,29.72
2022-08-14T07:20:07.249Z,29.81
2022-08-14T07:22:56.476Z,29.95
2022-08-14T07:25:32.377Z,30.05
2022-08-14T07:28:01.612Z,30.18
2022-08-14T07:30:34.090Z,30.29
2022-08-14T07:33:03.709Z,30.41
2022-08-14T07:35:42.892Z,30.54
2022-08-14T07:38:18.584Z,30.64
2022-08-14T07:40:48.333Z,30.78
2022-08-14T07:43:23.059Z,30.99
2022-08-14T07:45:53.874Z,31.44
2022-08-14T07:48:24.970Z,32.13
2022-08-14T07:50:56.224Z,32.89
2022-08-14T07:53:36.709Z,33.69
2022-08-14T07:56:21.726Z,34.46
2022-08-14T07:58:58.796Z,35.43
2022-08-14T08:01:29.819Z,36.12
2022-08-14T08:04:03.672Z,36.39
2022-08-14T08:06:31.516Z,36.47
2022-08-14T08:09:03.039Z,36.85
2022-08-14T08:11:34.756Z,37.21
2022-08-14T08:14:10.314Z,37.81
2022-08-14T08:16:38.374Z,38.20
2022-08-14T08:19:13.992Z,38.16
2022-08-14T08:21:43.818Z,38.21
2022-08-14T08:24:18.541Z,38.71
2022-08-14T08:26:47.634Z,39.36
2022-08-14T08:29:24.954Z,39.92
2022-08-14T08:32:01.937Z,40.43
2022-08-14T08:34:45.995Z,41.02
2022-08-14T08:37:14.793Z,41.64
2022-08-14T08:40:03.002Z,42.03
2022-08-14T08:42:38.601Z,42.27
2022-08-14T08:45:12.184Z,42.49
2022-08-14T08:47:40.627Z,42.66
2022-08-14T08:50:31.116Z,43.18
2022-08-14T08:53:02.398Z,43.84
2022-08-14T08:55:35.367Z,44.50
2022-08-14T08:58:12.774Z,44.83
2022-08-14T09:00:49.061Z,45.12
2022-08-14T09:03:21.585Z,45.14
2022-08-14T09:05:56.166Z,44.77
2022-08-14T09:08:30.864Z,44.61
2022-08-14T09:11:18.980Z,44.64
2022-08-14T09:13:51.585Z,44.84
2022-08-14T09:16:23.549Z,44.70
2022-08-14T09:18:53.335Z,44.77
2022-08-14T09:21:24.296Z,44.73
2022-08-14T09:24:29.501Z,44.53
2022-08-14T09:26:48.876Z,44.60
2022-08-14T09:29:23.232Z,44.72
2022-08-14T09:31:57.520Z,44.86
2022-08-14T09:34:58.737Z,45.02
2022-08-14T09:37:47.598Z,45.08
2022-08-14T09:40:37.213Z,45.46
2022-08-14T09:43:30.186Z,46.11
2022-08-14T09:46:02.500Z,46.66
2022-08-14T09:48:31.306Z,47.04
2022-08-14T09:54:17.680Z,46.73
2022-08-14T09:56:31.205Z,46.72
2022-08-14T09:59:16.624Z,46.70
2022-08-14T10:01:46.320Z,46.81
2022-08-14T10:04:34.711Z,46.77
2022-08-14T10:07:05.588Z,46.48
2022-08-14T10:09:35.114Z,46.42
2022-08-14T10:12:06.776Z,46.41
2022-08-14T10:14:53.242Z,46.77
2022-08-14T10:17:27.460Z,47.03
2022-08-14T10:19:58.044Z,47.10
2022-08-14T10:23:12.979Z,47.43
2022-08-14T10:25:18.931Z,47.82
2022-08-14T10:27:57.731Z,48.29
2022-08-14T10:30:38.407Z,48.82
2022-08-14T10:33:07.127Z,49.07
2022-08-14T10:35:47.802Z,49.42
2022-08-14T10:38:31.838Z,49.45
2022-08-14T10:41:12.831Z,48.94
2022-08-14T10:43:42.403Z,48.16
2022-08-14T10:47:13.206Z,46.98
2022-08-14T10:49:05.203Z,45.51
2022-08-14T10:51:36.364Z,44.35
2022-08-14T10:54:35.181Z,43.46
2022-08-14T10:56:59.109Z,42.68
2022-08-14T10:59:31.334Z,41.98
2022-08-14T11:02:17.618Z,40.98
2022-08-14T11:05:07.428Z,40.37
2022-08-14T11:07:39.783Z,40.09
2022-08-14T11:10:10.572Z,39.78
2022-08-14T11:12:48.045Z,39.61
2022-08-14T11:15:19.783Z,39.51
2022-08-14T11:17:51.261Z,39.44
2022-08-14T11:20:23.950Z,39.47
2022-08-14T11:22:57.853Z,39.25
2022-08-14T11:25:44.002Z,39.06
2022-08-14T11:28:46.257Z,39.01
2022-08-14T11:31:17.075Z,39.11
2022-08-14T11:33:51.215Z,39.12
2022-08-14T11:36:23.614Z,39.07
2022-08-14T11:38:51.538Z,39.03
2022-08-14T11:41:21.513Z,38.92
2022-08-14T11:43:58.229Z,38.84
2022-08-14T11:46:30.753Z,38.70
2022-08-14T11:49:06.935Z,38.77
2022-08-14T11:51:54.424Z,38.87
2022-08-14T11:54:34.986Z,38.87
2022-08-14T11:57:04.675Z,38.75
2022-08-14T11:59:35.411Z,38.43
2022-08-14T12:02:39.097Z,38.07
2022-08-14T12:05:06.027Z,37.97
2022-08-14T12:07:48.588Z,38.26
2022-08-14T12:10:26.708Z,38.69
2022-08-14T12:13:17.356Z,38.97
2022-08-14T12:15:51.374Z,38.94
2022-08-14T12:18:32.350Z,38.94
2022-08-14T12:21:15.924Z,38.84
2022-08-14T12:24:01.912Z,38.68
2022-08-14T12:26:39.206Z,38.54
2022-08-14T12:29:11.118Z,38.43
2022-08-14T12:31:44.745Z,38.40
2022-08-14T12:34:20.419Z,38.27
2022-08-14T12:37:05.713Z,38.05
2022-08-14T12:39:39.673Z,37.88
2022-08-14T12:42:08.602Z,37.66
2022-08-14T12:44:44.158Z,37.52
2022-08-14T12:47:17.830Z,37.37
2022-08-14T12:49:52.705Z,37.19
2022-08-14T12:52:43.006Z,37.21
2022-08-14T12:55:21.773Z,37.35
2022-08-14T12:57:53.390Z,37.41
2022-08-14T13:00:24.580Z,37.54
2022-08-14T13:02:55.820Z,37.65
2022-08-14T13:05:29.067Z,37.65
2022-08-14T13:07:59.525Z,37.66
2022-08-14T13:10:46.656Z,37.47
2022-08-14T13:13:20.466Z,37.28
2022-08-14T13:15:57.231Z,37.31
2022-08-14T13:18:28.203Z,37.38
2022-08-14T13:21:01.102Z,37.53
2022-08-14T13:23:36.129Z,37.71
2022-08-14T13:26:04.724Z,37.91
2022-08-14T13:28:37.536Z,38.08
2022-08-14T13:31:13.140Z,38.15
2022-08-14T13:33:41.881Z,38.13
2022-08-14T13:36:11.005Z,38.06
2022-08-14T13:38:54.072Z,38.08
2022-08-14T13:41:28.008Z,38.17
2022-08-14T13:44:00.675Z,38.28
2022-08-14T13:46:28.275Z,38.35
2022-08-14T13:48:59.962Z,38.34
2022-08-14T13:51:38.216Z,38.26
2022-08-14T13:54:10.870Z,38.24
2022-08-14T13:56:41.000Z,38.07
2022-08-14T13:59:10.732Z,37.95
2022-08-14T14:01:43.955Z,37.86
2022-08-14T14:04:19.254Z,37.99
2022-08-14T14:06:50.798Z,38.18
2022-08-14T14:09:32.253Z,38.24
2022-08-14T14:12:01.241Z,38.24
2022-08-14T14:14:50.989Z,38.12
2022-08-14T14:17:24.431Z,37.98
2022-08-14T14:19:52.775Z,37.86
2022-08-14T14:23:00.953Z,37.72
2022-08-14T14:25:10.790Z,37.54
2022-08-14T14:27:42.526Z,37.43
2022-08-14T14:30:46.903Z,37.31
2022-08-14T14:33:11.173Z,37.30
2022-08-14T14:35:52.642Z,37.38
2022-08-14T14:38:21.176Z,37.36
2022-08-14T14:41:00.798Z,37.33
2022-08-14T14:43:29.579Z,37.21
2022-08-14T14:45:57.906Z,37.22
2022-08-14T14:48:29.504Z,37.18
2022-08-14T14:51:01.515Z,37.22
2022-08-14T14:53:38.728Z,37.22
2022-08-14T14:56:50.109Z,37.23
2022-08-14T14:58:58.332Z,37.19
2022-08-14T15:01:26.028Z,37.06
2022-08-14T15:03:55.538Z,37.06
2022-08-14T15:06:30.380Z,37.09
2022-08-14T15:09:01.884Z,37.22
2022-08-14T15:11:33.566Z,37.26
2022-08-14T15:14:01.022Z,37.12
2022-08-14T15:16:28.897Z,37.09
2022-08-14T15:18:56.307Z,37.08
2022-08-14T15:21:25.062Z,37.05
2022-08-14T15:23:53.036Z,37.15
2022-08-14T15:26:30.976Z,37.25
2022-08-14T15:29:05.736Z,37.31
2022-08-14T15:31:36.617Z,37.42
2022-08-14T15:34:44.603Z,37.38
2022-08-14T15:37:00.147Z,37.41
2022-08-14T15:39:29.519Z,37.46
2022-08-14T15:42:14.758Z,37.49
2022-08-14T15:44:56.960Z,37.33
2022-08-14T15:47:28.176Z,37.28
2022-08-14T15:49:59.641Z,37.33
2022-08-14T15:52:34.361Z,37.37
2022-08-14T15:55:06.216Z,37.33
2022-08-14T15:57:34.290Z,37.33
2022-08-14T16:00:41.755Z,37.35
2022-08-14T16:03:14.289Z,37.25
2022-08-14T16:05:43.633Z,37.15
2022-08-14T16:08:28.667Z,37.10
2022-08-14T16:10:59.742Z,37.01
2022-08-14T16:13:42.118Z,36.99
2022-08-14T16:16:47.628Z,37.05
2022-08-14T16:19:10.273Z,37.25
2022-08-14T16:22:02.274Z,37.59
2022-08-14T16:24:33.271Z,37.93
2022-08-14T16:27:01.890Z,38.11
2022-08-14T16:29:36.604Z,38.14
2022-08-14T16:32:33.452Z,38.05
2022-08-14T16:34:58.014Z,37.82
2022-08-14T16:37:33.898Z,37.69
2022-08-14T16:40:03.653Z,37.48
2022-08-14T16:43:02.633Z,37.26
2022-08-14T16:45:27.552Z,37.10
2022-08-14T16:47:57.132Z,36.97
2022-08-14T16:50:40.091Z,36.95
2022-08-14T16:53:11.846Z,36.94
2022-08-14T16:55:53.272Z,36.90
2022-08-14T16:58:30.340Z,36.91
2022-08-14T17:01:24.564Z,36.83
2022-08-14T17:04:04.693Z,36.83
2022-08-14T17:06:48.382Z,36.79
2022-08-14T17:09:35.502Z,36.70
2022-08-14T17:12:28.594Z,36.70
2022-08-14T17:15:10.488Z,36.69
2022-08-14T17:17:57.651Z,36.62
2022-08-14T17:20:53.810Z,36.58
2022-08-14T17:23:15.229Z,36.53
2022-08-14T17:25:50.973Z,36.48
2022-08-14T17:28:51.303Z,36.41
2022-08-14T17:31:10.013Z,36.33
2022-08-14T17:33:40.701Z,36.26
2022-08-14T17:36:20.791Z,36.21
2022-08-14T17:39:06.304Z,36.09
2022-08-14T17:41:38.671Z,36.04
2022-08-14T17:44:33.476Z,35.97
2022-08-14T17:47:06.524Z,35.95
2022-08-14T17:49:40.399Z,35.93
2022-08-14T17:52:18.396Z,35.86
2022-08-14T17:55:01.660Z,35.80
2022-08-14T17:57:45.450Z,35.76
2022-08-14T18:00:17.370Z,35.69
2022-08-14T18:02:51.134Z,35.65
2022-08-14T18:05:23.367Z,35.60
2022-08-14T18:08:32.776Z,35.56
2022-08-14T18:11:00.307Z,35.50
2022-08-14T18:13:49.662Z,35.46
2022-08-14T18:16:20.602Z,35.41
2022-08-14T18:18:51.501Z,35.38
2022-08-14T18:21:41.044Z,35.34
2022-08-14T18:24:20.285Z,35.26
2022-08-14T18:27:09.169Z,35.19
2022-08-14T18:29:54.799Z,35.14
2022-08-14T18:32:47.616Z,35.05
2022-08-14T18:35:56.824Z,35.06
2022-08-14T18:38:43.135Z,35.02
2022-08-14T18:41:37.551Z,34.94
2022-08-14T18:44:10.827Z,34.94
2022-08-14T18:47:20.742Z,34.79
2022-08-14T18:50:26.038Z,34.79
2022-08-14T18:52:53.963Z,34.77
2022-08-14T18:55:53.532Z,34.67
2022-08-14T18:58:31.028Z,34.69
2022-08-14T19:01:00.858Z,34.66
2022-08-14T19:04:00.862Z,34.54
2022-08-14T19:06:56.315Z,34.51
2022-08-14T19:09:54.679Z,34.41
2022-08-14T19:13:00.452Z,34.35
2022-08-14T19:15:32.740Z,34.39
2022-08-14T19:18:14.366Z,34.37
2022-08-14T19:20:52.800Z,34.32
2022-08-14T19:23:42.360Z,34.29
2022-08-14T19:26:35.688Z,34.23
2022-08-14T19:29:38.365Z,34.16
2022-08-14T19:32:41.470Z,34.07
2022-08-14T19:35:55.701Z,33.99
2022-08-14T19:38:48.402Z,33.98
2022-08-14T19:41:25.055Z,33.98
2022-08-14T19:44:10.512Z,33.94
2022-08-14T19:47:01.860Z,33.93
2022-08-14T19:50:25.093Z,33.85
2022-08-14T19:52:25.584Z,33.82
2022-08-14T19:54:54.318Z,33.79
2022-08-14T19:57:24.616Z,33.75
2022-08-14T20:00:04.628Z,33.68
2022-08-14T20:02:37.652Z,33.68
2022-08-14T20:05:12.231Z,33.63
2022-08-14T20:07:58.911Z,33.59
2022-08-14T20:11:11.322Z,33.56
2022-08-14T20:13:32.746Z,33.52
2022-08-14T20:16:12.510Z,33.47
2022-08-14T20:18:51.758Z,33.47
2022-08-14T20:21:23.814Z,33.44
2022-08-14T20:24:30.888Z,33.37
2022-08-14T20:27:24.925Z,33.31
2022-08-14T20:30:32.830Z,33.27
2022-08-14T20:33:07.466Z,33.29
2022-08-14T20:35:41.848Z,33.29
2022-08-14T20:38:30.855Z,33.27
2022-08-14T20:41:06.593Z,33.25
2022-08-14T20:43:55.829Z,33.25
2022-08-14T20:46:29.638Z,33.21
2022-08-14T20:49:00.662Z,33.21
2022-08-14T20:51:43.535Z,33.19
2022-08-14T20:54:34.122Z,33.13
2022-08-14T20:57:09.804Z,33.12
2022-08-14T20:59:43.490Z,33.11
2022-08-14T21:02:38.776Z,33.03
2022-08-14T21:05:33.794Z,33.00
2022-08-14T21:08:08.105Z,32.96
2022-08-14T21:10:44.178Z,32.94
2022-08-14T21:14:09.204Z,32.90
2022-08-14T21:16:33.725Z,32.85
2022-08-14T21:19:00.006Z,32.81
2022-08-14T21:21:40.559Z,32.78
2022-08-14T21:24:40.182Z,32.73
2022-08-14T21:27:13.241Z,32.67
2022-08-14T21:29:54.065Z,32.64
2022-08-14T21:32:35.756Z,32.61
2022-08-14T21:35:09.915Z,32.55
2022-08-14T21:37:44.099Z,32.54
2022-08-14T21:40:40.789Z,32.50
2022-08-14T21:43:00.412Z,32.45
2022-08-14T21:45:27.802Z,32.41
2022-08-14T21:47:56.406Z,32.36
2022-08-14T21:51:00.343Z,32.31
2022-08-14T21:53:14.742Z,32.24
2022-08-14T21:55:43.543Z,32.20
2022-08-14T21:58:52.546Z,32.18
2022-08-14T22:00:58.741Z,32.10
2022-08-14T22:03:26.347Z,32.06
2022-08-14T22:06:04.658Z,32.02
2022-08-14T22:08:38.352Z,32.00
2022-08-14T22:11:07.341Z,31.97
2022-08-14T22:13:46.471Z,31.91
2022-08-14T22:17:01.527Z,31.89
2022-08-14T22:19:03.711Z,31.87
2022-08-14T22:21:33.425Z,31.86
2022-08-14T22:24:01.894Z,31.84
2022-08-14T22:26:44.712Z,31.81
2022-08-14T22:29:15.010Z,31.77
2022-08-14T22:31:46.197Z,31.75
2022-08-14T22:34:16.994Z,31.74
2022-08-14T22:36:48.643Z,31.72
2022-08-14T22:39:17.166Z,31.72
2022-08-14T22:41:55.824Z,31.69
2022-08-14T22:44:29.188Z,31.63
2022-08-14T22:46:57.668Z,31.61
2022-08-14T22:50:31.463Z,31.59
2022-08-14T22:52:31.669Z,31.56
2022-08-14T22:55:05.739Z,31.53
2022-08-14T22:57:37.815Z,31.52
2022-08-14T23:00:15.069Z,31.51
2022-08-14T23:02:44.954Z,31.52
2022-08-14T23:05:15.275Z,31.52
2022-08-14T23:08:59.207Z,31.49
2022-08-14T23:10:34.770Z,31.44
2022-08-14T23:13:06.758Z,31.44
2022-08-14T23:15:37.541Z,31.43
2022-08-14T23:18:05.985Z,31.40
2022-08-14T23:20:33.851Z,31.39
2022-08-14T23:23:13.074Z,31.37
2022-08-14T23:25:59.779Z,31.40
2022-08-14T23:28:56.573Z,31.42
2022-08-14T23:31:34.468Z,31.42
2022-08-14T23:34:06.730Z,31.43
2022-08-14T23:36:53.606Z,31.45
2022-08-14T23:39:29.496Z,31.43
2022-08-14T23:42:02.555Z,31.45
2022-08-14T23:44:34.964Z,31.45
2022-08-14T23:47:10.637Z,31.46
2022-08-14T23:50:00.990Z,31.46
2022-08-14T23:52:57.458Z,31.45
2022-08-14T23:55:17.945Z,31.43
2022-08-14T23:57:58.010Z,31.40
